createdAt,value
2022-12-13T00:02:10.271Z,9.55
2022-12-13T00:04:38.601Z,9.65
2022-12-13T00:07:06.817Z,9.00
2022-12-13T00:09:35.397Z,10.15
2022-12-13T00:12:05.137Z,9.40
2022-12-13T00:14:33.702Z,9.57
2022-12-13T00:17:01.990Z,9.93
2022-12-13T00:19:30.296Z,10.18
2022-12-13T00:21:58.526Z,8.98
2022-12-13T00:24:26.712Z,9.20
2022-12-13T00:26:56.592Z,9.23
2022-12-13T00:29:26.433Z,9.95
2022-12-13T00:32:01.946Z,9.23
2022-12-13T00:34:30.588Z,8.43
2022-12-13T00:37:04.869Z,8.90
2022-12-13T00:39:33.115Z,8.93
2022-12-13T00:42:01.336Z,9.32
2022-12-13T00:44:31.230Z,9.32
2022-12-13T00:46:59.560Z,8.65
2022-12-13T00:49:27.749Z,7.95
2022-12-13T00:51:55.985Z,8.60
2022-12-13T00:54:24.208Z,7.60
2022-12-13T00:56:52.575Z,7.90
2022-12-13T00:59:20.763Z,8.45
2022-12-13T01:01:50.631Z,8.43
2022-12-13T01:04:18.909Z,8.52
2022-12-13T01:06:54.338Z,6.93
2022-12-13T01:09:27.164Z,9.60
2022-12-13T01:11:58.786Z,8.20
2022-12-13T01:14:27.500Z,9.23
2022-12-13T01:16:57.375Z,8.93
2022-12-13T01:19:27.275Z,8.23
2022-12-13T01:21:56.044Z,8.73
2022-12-13T01:24:26.053Z,8.75
2022-12-13T01:26:57.201Z,9.00
2022-12-13T01:29:26.161Z,7.82
2022-12-13T01:31:56.148Z,7.88
2022-12-13T01:34:26.484Z,7.38
2022-12-13T01:36:58.401Z,8.40
2022-12-13T01:39:28.293Z,7.10
2022-12-13T01:41:59.827Z,7.63
2022-12-13T01:45:00.916Z,7.32
2022-12-13T01:47:34.776Z,7.22
2022-12-13T01:50:07.618Z,7.20
2022-12-13T01:52:39.593Z,6.78
2022-12-13T01:55:09.663Z,6.80
2022-12-13T01:57:45.436Z,7.95
2022-12-13T02:00:15.256Z,6.22
2022-12-13T02:02:45.629Z,7.68
2022-12-13T02:05:20.814Z,8.75
2022-12-13T02:07:49.959Z,7.70
2022-12-13T02:10:19.148Z,8.05
2022-12-13T02:12:47.540Z,7.30
2022-12-13T02:15:18.660Z,6.90
2022-12-13T02:18:09.177Z,7.78
2022-12-13T02:20:56.508Z,7.25
2022-12-13T02:23:50.574Z,6.75
2022-12-13T02:26:49.270Z,7.20
2022-12-13T02:29:48.741Z,6.40
2022-12-13T02:32:25.936Z,7.38
2022-12-13T02:35:01.808Z,7.38
2022-12-13T02:37:38.168Z,7.85
2022-12-13T02:40:10.086Z,7.43
2022-12-13T02:42:41.554Z,7.57
2022-12-13T02:45:20.287Z,7.65
2022-12-13T02:47:53.670Z,7.75
2022-12-13T02:50:23.092Z,7.35
2022-12-13T02:52:52.584Z,8.20
2022-12-13T02:55:25.166Z,8.13
2022-12-13T02:57:56.419Z,7.05
2022-12-13T03:00:29.266Z,8.05
2022-12-13T03:03:14.037Z,7.50
2022-12-13T03:06:06.364Z,8.18
2022-12-13T03:08:46.380Z,7.03
2022-12-13T03:11:17.633Z,7.38
2022-12-13T03:13:51.137Z,8.20
2022-12-13T03:16:39.349Z,7.10
2022-12-13T03:19:11.206Z,7.72
2022-12-13T03:21:47.078Z,7.75
2022-12-13T03:24:19.176Z,6.97
2022-12-13T03:26:48.703Z,7.55
2022-12-13T03:29:24.115Z,7.60
2022-12-13T03:31:53.266Z,8.32
2022-12-13T03:34:23.700Z,8.90
2022-12-13T03:36:52.479Z,6.97
2022-12-13T03:39:21.355Z,8.90
2022-12-13T03:41:50.605Z,8.32
2022-12-13T03:44:18.885Z,8.15
2022-12-13T03:46:47.187Z,8.18
2022-12-13T03:49:17.514Z,8.20
2022-12-13T03:51:47.936Z,8.65
2022-12-13T03:54:16.306Z,9.13
2022-12-13T03:56:44.621Z,8.95
2022-12-13T03:59:12.853Z,8.20
2022-12-13T04:01:41.176Z,9.15
2022-12-13T04:04:09.530Z,8.55
2022-12-13T04:06:37.727Z,9.02
2022-12-13T04:09:07.352Z,9.85
2022-12-13T04:11:52.646Z,7.75
2022-12-13T04:14:22.220Z,9.15
2022-12-13T04:16:51.814Z,8.50
2022-12-13T04:19:23.014Z,7.97
2022-12-13T04:21:54.398Z,7.95
2022-12-13T04:24:30.898Z,8.02
2022-12-13T04:27:00.537Z,8.00
2022-12-13T04:29:34.311Z,8.25
2022-12-13T04:32:03.753Z,7.85
2022-12-13T04:34:36.876Z,8.35
2022-12-13T04:37:06.053Z,7.95
2022-12-13T04:39:35.899Z,9.40
2022-12-13T04:42:05.636Z,10.18
2022-12-13T04:44:37.088Z,23.08
2022-12-13T04:47:05.609Z,21.02
2022-12-13T04:49:34.239Z,17.92
2022-12-13T04:52:03.288Z,17.20
2022-12-13T04:54:36.685Z,13.80
2022-12-13T04:57:08.318Z,12.63
2022-12-13T04:59:36.896Z,8.70
2022-12-13T05:02:05.940Z,9.18
2022-12-13T05:04:34.485Z,7.93
2022-12-13T05:07:03.094Z,7.85
2022-12-13T05:09:31.390Z,7.60
2022-12-13T05:12:01.635Z,7.75
2022-12-13T05:14:31.938Z,7.78
2022-12-13T05:17:00.758Z,7.13
2022-12-13T05:19:30.937Z,7.63
2022-12-13T05:22:02.002Z,6.38
2022-12-13T05:24:31.456Z,7.50
2022-12-13T05:26:59.735Z,6.65
2022-12-13T05:29:28.422Z,5.75
2022-12-13T05:31:58.131Z,6.63
2022-12-13T05:34:26.653Z,7.13
2022-12-13T05:36:57.557Z,7.05
2022-12-13T05:39:28.870Z,6.40
2022-12-13T05:42:02.097Z,6.50
2022-12-13T05:44:31.768Z,6.40
2022-12-13T05:47:02.797Z,5.97
2022-12-13T05:49:32.230Z,6.00
2022-12-13T05:52:00.636Z,6.20
2022-12-13T05:54:29.009Z,6.65
2022-12-13T05:56:57.190Z,5.88
2022-12-13T05:59:25.429Z,6.32
2022-12-13T06:01:53.692Z,6.32
2022-12-13T06:04:23.674Z,7.10
2022-12-13T06:06:52.374Z,9.27
2022-12-13T06:09:20.736Z,5.93
2022-12-13T06:11:49.357Z,7.07
2022-12-13T06:14:21.927Z,8.40
2022-12-13T06:16:54.388Z,5.95
2022-12-13T06:19:25.048Z,7.18
2022-12-13T06:21:55.288Z,6.35
2022-12-13T06:24:27.492Z,5.30
2022-12-13T06:26:55.709Z,6.05
2022-12-13T06:29:25.812Z,6.10
2022-12-13T06:32:01.271Z,5.53
2022-12-13T06:34:34.713Z,5.03
2022-12-13T06:37:05.394Z,5.25
2022-12-13T06:39:33.965Z,4.57
2022-12-13T06:42:03.357Z,5.47
2022-12-13T06:44:31.760Z,5.07
2022-12-13T06:47:10.280Z,5.80
2022-12-13T06:49:44.361Z,5.47
2022-12-13T06:52:13.941Z,6.72
2022-12-13T06:54:42.929Z,5.90
2022-12-13T06:57:12.004Z,4.95
2022-12-13T06:59:40.950Z,5.15
2022-12-13T07:02:15.403Z,7.05
2022-12-13T07:04:56.406Z,5.88
2022-12-13T07:07:25.889Z,7.47
2022-12-13T07:09:54.800Z,6.50
2022-12-13T07:12:23.380Z,6.78
2022-12-13T07:14:51.700Z,7.32
2022-12-13T07:17:32.935Z,6.65
2022-12-13T07:20:08.374Z,7.40
2022-12-13T07:22:44.765Z,6.57
2022-12-13T07:25:28.172Z,7.20
2022-12-13T07:28:01.573Z,7.18
2022-12-13T07:30:30.985Z,6.70
2022-12-13T07:32:59.298Z,6.35
2022-12-13T07:35:29.135Z,6.60
2022-12-13T07:37:57.343Z,12.98
2022-12-13T07:40:25.882Z,7.88
2022-12-13T07:42:54.693Z,6.43
2022-12-13T07:45:24.142Z,7.50
2022-12-13T07:47:52.358Z,6.65
2022-12-13T07:50:24.408Z,7.60
2022-12-13T07:52:58.001Z,6.60
2022-12-13T07:55:33.559Z,4.82
2022-12-13T07:58:10.590Z,6.03
2022-12-13T08:00:39.345Z,6.72
2022-12-13T08:03:11.051Z,7.35
2022-12-13T08:05:41.715Z,6.53
2022-12-13T08:08:11.857Z,6.22
2022-12-13T08:10:40.363Z,5.82
2022-12-13T08:13:08.623Z,5.45
2022-12-13T08:15:36.835Z,4.80
2022-12-13T08:18:05.238Z,4.50
2022-12-13T08:20:36.144Z,5.82
2022-12-13T08:23:04.351Z,4.60
2022-12-13T08:25:33.964Z,5.15
2022-12-13T08:28:02.741Z,4.78
2022-12-13T08:30:32.454Z,5.38
2022-12-13T08:33:05.337Z,4.25
2022-12-13T08:35:34.998Z,5.97
2022-12-13T08:38:04.349Z,4.28
2022-12-13T08:40:34.920Z,3.78
2022-12-13T08:43:03.589Z,4.22
2022-12-13T08:45:34.195Z,4.32
2022-12-13T08:48:03.401Z,6.13
2022-12-13T08:50:33.066Z,5.40
2022-12-13T08:53:01.901Z,4.43
2022-12-13T08:55:31.631Z,4.97
2022-12-13T08:58:08.493Z,5.70
2022-12-13T09:00:37.386Z,6.07
2022-12-13T09:03:09.776Z,5.10
2022-12-13T09:05:46.101Z,4.88
2022-12-13T09:08:23.978Z,5.07
2022-12-13T09:10:59.810Z,5.45
2022-12-13T09:13:31.333Z,4.05
2022-12-13T09:16:01.514Z,4.78
2022-12-13T09:18:34.819Z,4.88
2022-12-13T09:21:11.018Z,4.63
2022-12-13T09:23:45.804Z,4.68
2022-12-13T09:26:16.428Z,4.57
2022-12-13T09:28:46.194Z,4.53
2022-12-13T09:31:17.447Z,3.60
2022-12-13T09:33:46.853Z,4.00
2022-12-13T09:36:17.775Z,3.20
2022-12-13T09:38:46.305Z,3.67
2022-12-13T09:41:29.289Z,3.70
2022-12-13T09:44:01.295Z,5.47
2022-12-13T09:46:34.716Z,5.78
2022-12-13T09:49:23.157Z,2.72
2022-12-13T09:52:10.656Z,3.22
2022-12-13T09:54:48.369Z,3.80
2022-12-13T09:57:32.204Z,4.10
2022-12-13T10:00:05.361Z,4.03
2022-12-13T10:02:40.797Z,3.13
2022-12-13T10:05:33.690Z,3.92
2022-12-13T10:08:07.534Z,2.45
2022-12-13T10:10:35.865Z,4.35
2022-12-13T10:13:14.611Z,7.78
2022-12-13T10:15:48.608Z,9.02
2022-12-13T10:18:26.266Z,5.80
2022-12-13T10:20:55.511Z,4.82
2022-12-13T10:23:38.592Z,3.90
2022-12-13T10:26:24.591Z,4.00
2022-12-13T10:29:04.155Z,3.58
2022-12-13T10:31:41.985Z,4.10
2022-12-13T10:34:21.366Z,4.15
2022-12-13T10:36:50.066Z,4.15
2022-12-13T10:39:20.262Z,4.00
2022-12-13T10:41:48.560Z,4.53
2022-12-13T10:44:23.099Z,4.65
2022-12-13T10:47:06.321Z,4.97
2022-12-13T10:49:40.972Z,3.78
2022-12-13T10:52:31.374Z,3.78
2022-12-13T10:55:03.369Z,4.55
2022-12-13T10:57:32.473Z,4.75
2022-12-13T11:00:00.741Z,4.78
2022-12-13T11:02:38.812Z,5.47
2022-12-13T11:05:26.276Z,5.30
2022-12-13T11:07:55.483Z,4.93
2022-12-13T11:10:30.974Z,4.60
2022-12-13T11:13:02.829Z,4.35
2022-12-13T11:15:33.243Z,4.22
2022-12-13T11:18:05.797Z,4.30
2022-12-13T11:20:36.923Z,5.13
2022-12-13T11:23:08.277Z,5.15
2022-12-13T11:25:44.392Z,5.30
2022-12-13T11:28:36.582Z,5.20
2022-12-13T11:31:15.440Z,4.80
2022-12-13T11:33:55.347Z,4.63
2022-12-13T11:36:36.225Z,4.15
2022-12-13T11:39:15.706Z,5.05
2022-12-13T11:41:50.332Z,5.88
2022-12-13T11:44:25.302Z,5.45
2022-12-13T11:46:56.205Z,5.35
2022-12-13T11:49:35.220Z,5.10
2022-12-13T11:52:07.411Z,5.65
2022-12-13T11:54:44.315Z,5.03
2022-12-13T11:57:23.688Z,7.82
2022-12-13T12:00:02.451Z,6.18
2022-12-13T12:02:34.937Z,5.80
2022-12-13T12:05:16.625Z,8.90
2022-12-13T12:08:21.229Z,9.80
2022-12-13T12:10:47.435Z,9.60
2022-12-13T12:13:22.666Z,9.13
2022-12-13T12:15:59.904Z,9.30
2022-12-13T12:18:28.808Z,7.80
2022-12-13T12:21:14.689Z,8.00
2022-12-13T12:23:57.075Z,7.07
2022-12-13T12:26:32.341Z,6.20
2022-12-13T12:29:16.407Z,6.57
2022-12-13T12:31:51.489Z,7.68
2022-12-13T12:34:31.961Z,12.40
2022-12-13T12:37:15.425Z,6.95
2022-12-13T12:39:59.905Z,6.75
2022-12-13T12:43:14.271Z,8.10
2022-12-13T12:45:56.961Z,5.93
2022-12-13T12:49:00.525Z,5.95
2022-12-13T12:51:38.381Z,7.35
2022-12-13T12:54:32.152Z,7.07
2022-12-13T12:57:09.209Z,6.88
2022-12-13T12:59:46.441Z,6.15
2022-12-13T13:02:22.575Z,6.18
2022-12-13T13:04:54.695Z,5.45
2022-12-13T13:07:28.572Z,5.60
2022-12-13T13:09:58.983Z,6.05
2022-12-13T13:12:45.509Z,6.78
2022-12-13T13:15:44.723Z,7.35
2022-12-13T13:18:47.184Z,7.45
2022-12-13T13:21:35.318Z,6.60
2022-12-13T13:24:23.499Z,5.70
2022-12-13T13:26:55.892Z,5.60
2022-12-13T13:29:36.632Z,5.13
2022-12-13T13:32:28.661Z,4.65
2022-12-13T13:35:39.031Z,4.65
2022-12-13T13:38:49.011Z,5.28
2022-12-13T13:41:57.078Z,5.03
2022-12-13T13:44:53.953Z,5.63
2022-12-13T13:47:42.975Z,5.25
2022-12-13T13:50:43.477Z,5.05
2022-12-13T13:53:51.596Z,5.72
2022-12-13T13:56:50.213Z,6.05
2022-12-13T13:59:49.041Z,5.80
2022-12-13T14:02:58.115Z,5.20
2022-12-13T14:05:59.252Z,5.13
2022-12-13T14:08:35.814Z,5.60
2022-12-13T14:11:22.702Z,5.78
2022-12-13T14:14:24.054Z,5.65
2022-12-13T14:17:47.323Z,5.95
2022-12-13T14:20:46.925Z,6.82
2022-12-13T14:23:29.665Z,6.65
2022-12-13T14:26:34.225Z,5.85
2022-12-13T14:29:05.696Z,7.68
2022-12-13T14:31:40.377Z,8.68
2022-12-13T14:34:20.876Z,11.65
2022-12-13T14:36:56.397Z,32.00
2022-12-13T14:39:25.973Z,37.55
2022-12-13T14:41:56.668Z,20.85
2022-12-13T14:44:27.816Z,20.52
2022-12-13T14:46:58.026Z,23.40
2022-12-13T14:49:34.432Z,142.57
2022-12-13T14:52:06.884Z,107.38
2022-12-13T14:54:45.900Z,50.22
2022-12-13T14:57:19.495Z,48.28
2022-12-13T14:59:50.400Z,47.92
2022-12-13T15:02:30.079Z,53.17
2022-12-13T15:05:02.373Z,89.32
2022-12-13T15:07:35.791Z,38.22
2022-12-13T15:10:09.138Z,93.03
2022-12-13T15:12:42.298Z,29.30
2022-12-13T15:15:23.239Z,68.38
2022-12-13T15:18:07.277Z,39.83
2022-12-13T15:20:41.549Z,37.63
2022-12-13T15:23:16.872Z,49.40
2022-12-13T15:25:51.069Z,36.58
2022-12-13T15:28:21.810Z,38.05
2022-12-13T15:30:51.100Z,30.55
2022-12-13T15:33:23.527Z,35.88
2022-12-13T15:36:06.761Z,34.45
2022-12-13T15:38:35.496Z,37.25
2022-12-13T15:41:05.100Z,39.65
2022-12-13T15:43:38.259Z,66.07
2022-12-13T15:46:08.002Z,44.25
2022-12-13T15:48:39.313Z,39.15
2022-12-13T15:51:12.442Z,143.68
2022-12-13T15:53:42.259Z,153.90
2022-12-13T15:56:32.404Z,127.32
2022-12-13T15:59:05.559Z,115.03
2022-12-13T16:01:36.130Z,60.55
2022-12-13T16:04:05.629Z,44.53
2022-12-13T16:06:35.636Z,47.03
2022-12-13T16:09:07.988Z,56.72
2022-12-13T16:11:38.536Z,65.15
2022-12-13T16:14:29.653Z,39.05
2022-12-13T16:17:00.022Z,37.63
2022-12-13T16:19:36.525Z,36.90
2022-12-13T16:22:08.478Z,31.70
2022-12-13T16:24:37.552Z,40.95
2022-12-13T16:27:08.748Z,38.10
2022-12-13T16:29:37.772Z,36.22
2022-12-13T16:32:10.694Z,36.63
2022-12-13T16:34:39.084Z,33.65
2022-12-13T16:37:26.478Z,34.08
2022-12-13T16:40:01.895Z,42.17
2022-12-13T16:42:30.081Z,36.80
2022-12-13T16:45:32.489Z,36.00
2022-12-13T16:47:54.411Z,38.95
2022-12-13T16:50:22.679Z,37.05
2022-12-13T16:52:52.251Z,34.45
2022-12-13T16:55:20.441Z,33.88
2022-12-13T16:57:59.337Z,29.00
2022-12-13T17:00:30.468Z,30.67
2022-12-13T17:02:59.953Z,27.42
2022-12-13T17:05:29.489Z,25.10
2022-12-13T17:07:59.127Z,20.58
2022-12-13T17:10:28.005Z,23.83
2022-12-13T17:12:56.306Z,24.60
2022-12-13T17:15:24.562Z,49.75
2022-12-13T17:17:52.745Z,21.40
2022-12-13T17:20:22.027Z,16.98
2022-12-13T17:22:50.621Z,17.15
2022-12-13T17:25:20.549Z,16.30
2022-12-13T17:27:48.813Z,13.00
2022-12-13T17:30:18.735Z,12.68
2022-12-13T17:32:46.936Z,11.55
2022-12-13T17:35:18.364Z,12.13
2022-12-13T17:37:48.013Z,11.65
2022-12-13T17:40:20.521Z,12.75
2022-12-13T17:42:50.665Z,12.90
2022-12-13T17:45:19.608Z,12.82
2022-12-13T17:47:47.982Z,15.10
2022-12-13T17:50:19.222Z,16.65
2022-12-13T17:52:47.570Z,15.73
2022-12-13T17:55:18.621Z,15.02
2022-12-13T17:57:48.316Z,25.20
2022-12-13T18:00:17.458Z,23.10
2022-12-13T18:02:54.953Z,29.55
2022-12-13T18:05:26.085Z,46.20
2022-12-13T18:07:54.264Z,27.42
2022-12-13T18:10:27.780Z,72.65
2022-12-13T18:12:59.513Z,108.05
2022-12-13T18:15:27.827Z,117.63
2022-12-13T18:18:13.452Z,65.57
2022-12-13T18:20:41.886Z,38.50
2022-12-13T18:23:13.269Z,107.93
2022-12-13T18:25:44.833Z,128.52
2022-12-13T18:28:14.373Z,77.88
2022-12-13T18:30:42.847Z,306.80
2022-12-13T18:33:12.513Z,100.85
2022-12-13T18:35:43.478Z,110.40
2022-12-13T18:43:36.906Z,30.52
2022-12-13T18:46:12.605Z,34.47
2022-12-13T18:48:44.565Z,61.05
2022-12-13T18:51:13.462Z,90.15
2022-12-13T18:53:42.362Z,80.75
2022-12-13T18:56:18.226Z,77.72
2022-12-13T21:03:06.718Z,14.50
2022-12-13T21:16:16.984Z,18.75
2022-12-13T21:18:47.063Z,16.08
2022-12-13T21:21:15.998Z,12.07
2022-12-13T21:23:44.523Z,13.27
2022-12-13T21:26:13.394Z,10.15
2022-12-13T21:28:42.137Z,10.45
2022-12-13T21:31:13.313Z,11.45
2022-12-13T21:33:41.911Z,11.13
2022-12-13T21:36:17.212Z,11.00
2022-12-13T21:38:46.339Z,14.82
2022-12-13T21:41:15.197Z,13.90
2022-12-13T21:43:43.830Z,8.50
2022-12-13T21:46:19.045Z,9.88
2022-12-13T21:48:48.870Z,12.48
2022-12-13T21:51:20.731Z,11.90
2022-12-13T21:53:50.129Z,12.85
2022-12-13T21:56:38.366Z,8.75
2022-12-13T21:59:19.286Z,11.55
2022-12-13T22:02:07.821Z,8.70
2022-12-13T22:04:40.306Z,10.10
2022-12-13T22:25:03.095Z,10.65
2022-12-13T22:27:32.204Z,10.00
2022-12-13T22:30:08.842Z,8.15
2022-12-13T22:32:39.094Z,7.32
2022-12-13T22:35:12.324Z,7.68
2022-12-13T22:37:43.155Z,7.93
2022-12-13T22:40:14.975Z,7.70
2022-12-13T22:45:36.251Z,6.18
2022-12-13T22:48:17.456Z,7.18
2022-12-13T22:50:47.635Z,7.05
2022-12-13T22:53:19.614Z,8.07
2022-12-13T22:56:04.350Z,8.32
2022-12-13T22:58:35.261Z,6.68
2022-12-13T23:01:24.729Z,5.40
2022-12-13T23:03:55.341Z,6.80
2022-12-13T23:06:31.266Z,6.22
2022-12-13T23:09:07.105Z,5.88
2022-12-13T23:12:04.398Z,7.45
2022-12-13T23:14:40.465Z,6.63
2022-12-13T23:17:13.334Z,6.40
2022-12-13T23:19:50.661Z,6.40
2022-12-13T23:22:24.722Z,8.57
2022-12-13T23:24:55.468Z,8.80
2022-12-13T23:27:26.447Z,12.52
2022-12-13T23:29:57.056Z,9.00
2022-12-13T23:32:29.807Z,12.45
2022-12-13T23:34:59.321Z,9.18
2022-12-13T23:37:31.760Z,6.93
2022-12-13T23:40:01.594Z,5.88
2022-12-13T23:42:32.474Z,7.63
2022-12-13T23:45:01.657Z,6.70
2022-12-13T23:47:30.852Z,6.45
2022-12-13T23:50:00.055Z,6.72
2022-12-13T23:55:30.599Z,8.40
2022-12-13T23:58:01.202Z,7.35
